createdAt,value
2018-12-04T00:01:02.245Z,15.33
2018-12-04T00:03:31.631Z,13.23
2018-12-04T00:06:03.263Z,19.05
2018-12-04T00:08:32.750Z,13.83
2018-12-04T00:11:02.198Z,13.40
2018-12-04T00:13:31.952Z,15.10
2018-12-04T00:16:02.135Z,15.33
2018-12-04T00:18:31.621Z,13.00
2018-12-04T00:21:02.219Z,13.03
2018-12-04T00:23:31.683Z,17.13
2018-12-04T00:26:02.182Z,17.10
2018-12-04T00:28:31.642Z,15.23
2018-12-04T00:31:01.059Z,14.07
2018-12-04T00:33:30.422Z,18.80
2018-12-04T00:36:00.052Z,16.23
2018-12-04T00:38:29.409Z,13.77
2018-12-04T00:41:00.674Z,10.03
2018-12-04T00:43:30.094Z,10.30
2018-12-04T00:46:00.246Z,9.50
2018-12-04T00:48:30.146Z,11.67
2018-12-04T00:51:00.503Z,10.00
2018-12-04T00:53:30.309Z,6.60
2018-12-04T00:56:02.278Z,12.27
2018-12-04T00:58:31.841Z,10.37
2018-12-04T01:01:02.266Z,8.00
2018-12-04T01:03:31.815Z,9.00
2018-12-04T01:06:03.357Z,9.45
2018-12-04T01:08:32.946Z,11.33
2018-12-04T01:11:02.712Z,5.63
2018-12-04T01:13:32.414Z,8.77
2018-12-04T01:16:02.411Z,14.53
2018-12-04T01:18:31.767Z,11.00
2018-12-04T01:21:02.390Z,5.97
2018-12-04T01:23:34.356Z,12.80
2018-12-04T01:26:11.400Z,9.40
2018-12-04T01:28:41.199Z,6.47
2018-12-04T01:31:10.629Z,8.47
2018-12-04T01:33:40.590Z,10.33
2018-12-04T01:36:09.982Z,10.58
2018-12-04T01:38:39.431Z,9.57
2018-12-04T01:41:09.663Z,9.90
2018-12-04T01:43:41.559Z,8.65
2018-12-04T01:46:11.014Z,14.68
2018-12-04T01:48:40.412Z,8.00
2018-12-04T01:51:09.830Z,10.37
2018-12-04T01:53:39.628Z,9.80
2018-12-04T01:56:09.119Z,9.67
2018-12-04T01:58:38.980Z,6.67
2018-12-04T02:01:08.346Z,8.43
2018-12-04T02:03:37.888Z,13.37
2018-12-04T02:06:07.437Z,7.28
2018-12-04T02:08:37.311Z,8.53
2018-12-04T02:11:06.827Z,10.08
2018-12-04T02:13:38.435Z,7.17
2018-12-04T02:16:07.917Z,8.23
2018-12-04T02:18:37.680Z,13.20
2018-12-04T02:21:07.391Z,11.70
2018-12-04T02:23:36.793Z,11.87
2018-12-04T02:26:06.283Z,11.23
2018-12-04T02:28:41.900Z,11.63
2018-12-04T02:31:11.732Z,12.57
2018-12-04T02:33:42.359Z,8.17
2018-12-04T02:36:11.780Z,6.73
2018-12-04T02:38:41.699Z,8.77
2018-12-04T02:41:11.605Z,11.13
2018-12-04T02:43:40.959Z,7.37
2018-12-04T02:46:10.390Z,14.30
2018-12-04T02:48:40.482Z,12.43
2018-12-04T02:51:09.815Z,11.73
2018-12-04T02:53:39.372Z,12.53
2018-12-04T02:56:08.797Z,7.30
2018-12-04T02:58:40.064Z,10.90
2018-12-04T03:01:09.568Z,9.15
2018-12-04T03:03:39.058Z,12.87
2018-12-04T03:06:08.405Z,9.73
2018-12-04T03:08:37.898Z,10.33
2018-12-04T03:11:07.380Z,7.40
2018-12-04T03:13:37.170Z,8.77
2018-12-04T03:16:06.776Z,11.33
2018-12-04T03:18:36.520Z,10.63
2018-12-04T03:21:06.655Z,8.00
2018-12-04T03:23:36.472Z,8.43
2018-12-04T03:26:06.244Z,12.63
2018-12-04T03:28:35.860Z,6.03
2018-12-04T03:31:05.398Z,12.03
2018-12-04T03:33:38.156Z,9.33
2018-12-04T03:36:08.013Z,9.00
2018-12-04T03:38:38.088Z,9.33
2018-12-04T03:41:07.753Z,8.03
2018-12-04T03:43:40.067Z,7.83
2018-12-04T03:46:09.503Z,10.32
2018-12-04T03:48:39.790Z,7.53
2018-12-04T03:51:09.163Z,10.97
2018-12-04T03:53:40.804Z,8.20
2018-12-04T03:56:10.311Z,6.75
2018-12-04T03:58:41.517Z,9.27
2018-12-04T04:01:11.262Z,9.55
2018-12-04T04:03:46.619Z,9.13
2018-12-04T04:06:16.337Z,8.63
2018-12-04T04:08:45.779Z,9.77
2018-12-04T04:11:15.314Z,12.30
2018-12-04T04:13:46.874Z,5.80
2018-12-04T04:16:16.324Z,7.95
2018-12-04T04:18:45.754Z,5.83
2018-12-04T04:21:15.460Z,5.73
2018-12-04T04:23:45.618Z,3.20
2018-12-04T04:26:15.099Z,3.20
2018-12-04T04:28:45.065Z,5.33
2018-12-04T04:31:14.506Z,4.55
2018-12-04T04:33:44.541Z,5.40
2018-12-04T04:36:13.927Z,4.83
2018-12-04T04:38:43.684Z,4.33
2018-12-04T04:41:13.255Z,5.77
2018-12-04T04:43:42.665Z,4.97
2018-12-04T04:46:12.052Z,7.37
2018-12-04T04:48:41.738Z,6.40
2018-12-04T04:51:11.373Z,4.53
2018-12-04T04:53:40.802Z,6.43
2018-12-04T04:56:10.154Z,5.22
2018-12-04T04:58:39.646Z,7.70
2018-12-04T05:01:09.921Z,6.15
2018-12-04T05:03:39.526Z,6.33
2018-12-04T05:06:09.967Z,6.58
2018-12-04T05:08:39.481Z,9.73
2018-12-04T05:11:08.905Z,7.00
2018-12-04T05:13:40.519Z,7.30
2018-12-04T05:16:10.009Z,6.33
2018-12-04T05:18:39.457Z,7.60
2018-12-04T05:21:09.758Z,7.80
2018-12-04T05:23:41.296Z,13.50
2018-12-04T05:26:12.831Z,6.33
2018-12-04T05:28:42.730Z,7.03
2018-12-04T05:31:12.201Z,8.33
2018-12-04T05:33:41.632Z,7.07
2018-12-04T05:36:13.183Z,7.23
2018-12-04T05:38:42.588Z,9.83
2018-12-04T05:41:12.079Z,10.98
2018-12-04T05:43:41.598Z,9.50
2018-12-04T05:46:10.935Z,11.10
2018-12-04T05:48:40.413Z,9.20
2018-12-04T05:51:09.858Z,12.07
2018-12-04T05:53:39.170Z,12.10
2018-12-04T05:56:11.494Z,12.98
2018-12-04T05:58:41.011Z,10.87
2018-12-04T06:01:11.026Z,14.55
2018-12-04T06:03:40.945Z,11.63
2018-12-04T06:06:10.496Z,10.88
2018-12-04T06:08:40.354Z,13.17
2018-12-04T06:11:09.887Z,9.65
2018-12-04T06:13:39.214Z,12.23
2018-12-04T06:16:08.735Z,10.25
2018-12-04T06:18:38.531Z,14.50
2018-12-04T06:21:08.035Z,13.28
2018-12-04T06:23:37.438Z,12.80
2018-12-04T06:26:06.840Z,19.00
2018-12-04T06:28:36.316Z,15.07
2018-12-04T06:31:05.752Z,13.60
2018-12-04T06:33:35.151Z,13.43
2018-12-04T06:36:05.178Z,14.20
2018-12-04T06:38:35.489Z,13.80
2018-12-04T06:41:04.895Z,14.40
2018-12-04T06:43:34.254Z,18.55
2018-12-04T06:46:03.853Z,12.70
2018-12-04T06:48:33.322Z,14.85
2018-12-04T06:51:03.258Z,12.00
2018-12-04T06:53:33.285Z,11.57
2018-12-04T06:56:04.121Z,15.80
2018-12-04T06:58:33.748Z,15.40
2018-12-04T07:01:03.810Z,18.17
2018-12-04T07:03:33.216Z,18.23
2018-12-04T07:06:03.300Z,21.47
2018-12-04T07:08:33.117Z,19.37
2018-12-04T07:11:03.338Z,15.27
2018-12-04T07:13:32.639Z,16.37
2018-12-04T07:16:02.146Z,20.67
2018-12-04T07:18:31.626Z,14.30
2018-12-04T07:21:01.451Z,14.80
2018-12-04T07:23:30.948Z,14.73
2018-12-04T07:26:00.698Z,21.70
2018-12-04T07:28:30.961Z,12.57
2018-12-04T07:31:01.127Z,21.30
2018-12-04T07:33:31.592Z,17.60
2018-12-04T07:36:01.091Z,10.17
2018-12-04T07:38:30.916Z,8.10
2018-12-04T07:41:00.562Z,8.27
2018-12-04T07:43:30.602Z,11.50
2018-12-04T07:46:00.008Z,14.27
2018-12-04T07:48:30.136Z,12.00
2018-12-04T07:50:59.542Z,10.67
2018-12-04T07:53:28.996Z,12.63
2018-12-04T07:56:00.528Z,13.93
2018-12-04T07:58:29.947Z,13.33
2018-12-04T08:00:59.450Z,9.93
2018-12-04T08:03:28.879Z,10.33
2018-12-04T08:06:00.307Z,9.30
2018-12-04T08:08:29.699Z,7.77
2018-12-04T08:10:59.298Z,15.87
2018-12-04T08:13:28.978Z,7.40
2018-12-04T08:15:58.378Z,16.03
2018-12-04T08:18:27.841Z,10.07
2018-12-04T08:20:57.643Z,9.77
2018-12-04T08:23:27.241Z,8.30
2018-12-04T08:25:56.637Z,14.40
2018-12-04T08:28:26.082Z,9.73
2018-12-04T08:30:55.426Z,9.67
2018-12-04T08:33:24.854Z,9.20
2018-12-04T08:35:54.243Z,15.80
2018-12-04T08:38:23.653Z,9.53
2018-12-04T08:40:53.029Z,10.97
2018-12-04T08:43:22.426Z,12.10
2018-12-04T08:45:51.819Z,7.67
2018-12-04T08:48:21.289Z,10.55
2018-12-04T08:50:50.812Z,14.67
2018-12-04T08:53:20.219Z,11.20
2018-12-04T08:55:49.580Z,11.30
2018-12-04T08:58:19.321Z,13.62
2018-12-04T09:00:48.783Z,11.03
2018-12-04T09:03:18.211Z,11.90
2018-12-04T09:05:47.542Z,9.63
2018-12-04T09:08:17.691Z,9.15
2018-12-04T09:10:47.185Z,14.07
2018-12-04T09:13:16.565Z,8.50
2018-12-04T09:15:45.932Z,12.20
2018-12-04T09:18:17.479Z,10.60
2018-12-04T09:20:46.894Z,12.47
2018-12-04T09:23:16.340Z,10.32
2018-12-04T09:25:45.814Z,11.00
2018-12-04T09:28:15.396Z,12.95
2018-12-04T09:30:45.378Z,11.03
2018-12-04T09:33:17.793Z,13.38
2018-12-04T09:35:47.162Z,10.43
2018-12-04T09:38:16.646Z,10.33
2018-12-04T09:40:46.093Z,11.80
2018-12-04T09:43:15.534Z,12.30
2018-12-04T09:45:44.887Z,7.47
2018-12-04T09:48:14.411Z,10.95
2018-12-04T09:50:43.768Z,14.20
2018-12-04T09:53:13.143Z,10.63
2018-12-04T09:55:42.772Z,14.80
2018-12-04T09:58:12.757Z,12.58
2018-12-04T10:00:42.118Z,14.77
2018-12-04T10:03:11.625Z,10.93
2018-12-04T10:05:41.291Z,13.13
2018-12-04T10:08:10.627Z,14.90
2018-12-04T10:10:42.179Z,14.90
2018-12-04T10:13:13.083Z,12.40
2018-12-04T10:15:42.918Z,17.27
2018-12-04T10:18:14.454Z,12.53
2018-12-04T10:20:43.927Z,16.17
2018-12-04T10:23:13.312Z,11.43
2018-12-04T10:25:47.816Z,11.20
2018-12-04T10:28:17.447Z,13.00
2018-12-04T10:31:17.547Z,14.30
2018-12-04T10:33:46.937Z,13.63
2018-12-04T10:36:16.571Z,11.93
2018-12-04T10:38:46.407Z,10.47
2018-12-04T10:41:15.769Z,10.88
2018-12-04T10:43:45.291Z,9.87
2018-12-04T10:46:14.716Z,13.47
2018-12-04T10:48:44.778Z,15.37
2018-12-04T10:51:14.209Z,12.30
2018-12-04T10:53:43.672Z,10.03
2018-12-04T10:56:13.053Z,13.77
2018-12-04T10:58:42.460Z,11.70
2018-12-04T11:01:17.397Z,14.00
2018-12-04T11:03:48.055Z,11.23
2018-12-04T11:06:17.484Z,10.37
2018-12-04T11:08:47.413Z,12.10
2018-12-04T11:11:16.745Z,9.13
2018-12-04T11:13:46.127Z,11.70
2018-12-04T11:16:15.543Z,8.93
2018-12-04T11:18:46.032Z,10.83
2018-12-04T11:21:15.988Z,15.23
2018-12-04T11:23:46.470Z,8.67
2018-12-04T11:26:18.013Z,8.67
2018-12-04T11:28:47.588Z,11.87
2018-12-04T11:31:17.380Z,9.47
2018-12-04T11:33:47.156Z,8.30
2018-12-04T11:36:16.576Z,8.63
2018-12-04T11:38:46.017Z,11.77
2018-12-04T11:41:15.760Z,9.20
2018-12-04T11:43:45.410Z,9.03
2018-12-04T11:46:14.762Z,6.93
2018-12-04T11:48:44.254Z,13.63
2018-12-04T11:51:13.618Z,10.67
2018-12-04T11:53:43.015Z,12.57
2018-12-04T11:56:12.439Z,9.73
2018-12-04T11:58:41.802Z,8.13
2018-12-04T12:01:16.758Z,6.10
2018-12-04T12:03:46.204Z,9.83
2018-12-04T12:06:16.599Z,11.23
2018-12-04T12:08:46.463Z,12.40
2018-12-04T12:11:15.847Z,11.23
2018-12-04T12:13:45.226Z,6.30
2018-12-04T12:16:14.629Z,10.03
2018-12-04T12:18:46.140Z,5.00
2018-12-04T12:21:15.548Z,7.33
2018-12-04T12:23:45.318Z,8.37
2018-12-04T12:26:14.669Z,7.20
2018-12-04T12:28:44.135Z,6.80
2018-12-04T12:31:14.382Z,7.35
2018-12-04T12:33:44.059Z,5.00
2018-12-04T12:36:13.655Z,8.53
2018-12-04T12:38:45.247Z,6.27
2018-12-04T12:41:15.056Z,6.23
2018-12-04T12:43:44.563Z,6.10
2018-12-04T12:46:14.871Z,10.18
2018-12-04T12:48:45.310Z,7.87
2018-12-04T12:51:15.259Z,5.90
2018-12-04T12:53:44.727Z,4.65
2018-12-04T12:56:14.873Z,6.15
2018-12-04T12:58:44.531Z,3.80
2018-12-04T13:01:16.076Z,5.30
2018-12-04T13:03:45.498Z,7.00
2018-12-04T13:06:14.926Z,6.83
2018-12-04T13:08:44.528Z,6.90
2018-12-04T13:11:13.853Z,4.00
2018-12-04T13:13:43.821Z,6.07
2018-12-04T13:16:13.324Z,5.90
2018-12-04T13:18:42.693Z,4.70
2018-12-04T13:21:12.072Z,4.60
2018-12-04T13:23:41.398Z,3.63
2018-12-04T13:26:10.719Z,2.47
2018-12-04T13:28:40.754Z,3.13
2018-12-04T13:31:10.259Z,5.83
2018-12-04T13:33:40.145Z,4.17
2018-12-04T13:36:09.942Z,6.03
2018-12-04T13:38:39.478Z,5.60
2018-12-04T13:41:09.174Z,8.08
2018-12-04T13:43:40.980Z,4.53
2018-12-04T13:46:10.847Z,4.30
2018-12-04T13:48:41.893Z,3.57
2018-12-04T13:51:12.991Z,2.33
2018-12-04T13:53:43.908Z,2.50
2018-12-04T13:56:15.058Z,6.03
2018-12-04T13:58:48.932Z,6.83
2018-12-04T14:01:20.250Z,2.63
2018-12-04T14:03:51.325Z,1.43
2018-12-04T14:06:22.855Z,2.00
2018-12-04T14:08:54.012Z,1.53
2018-12-04T14:11:25.288Z,2.33
2018-12-04T14:13:56.932Z,1.63
2018-12-04T14:16:29.583Z,1.33
2018-12-04T14:19:01.121Z,1.27
2018-12-04T14:21:33.259Z,2.90
2018-12-04T14:24:06.396Z,3.35
2018-12-04T14:26:37.560Z,2.50
2018-12-04T14:29:09.997Z,3.43
2018-12-04T14:31:41.165Z,3.93
2018-12-04T14:34:12.866Z,1.70
2018-12-04T14:36:43.930Z,1.73
2018-12-04T14:39:14.859Z,2.03
2018-12-04T14:41:46.515Z,0.82
2018-12-04T14:44:25.453Z,0.37
2018-12-04T14:46:56.565Z,0.30
2018-12-04T14:49:29.135Z,0.47
2018-12-04T14:52:00.242Z,1.30
2018-12-04T14:54:31.015Z,3.07
2018-12-04T14:57:02.107Z,2.37
2018-12-04T14:59:33.216Z,1.33
2018-12-04T15:02:04.386Z,2.03
2018-12-04T15:04:35.130Z,2.27
2018-12-04T15:07:06.500Z,1.00
2018-12-04T15:09:37.100Z,0.53
2018-12-04T15:12:08.321Z,3.23
2018-12-04T15:14:39.274Z,0.37
2018-12-04T15:17:09.573Z,0.40
2018-12-04T15:19:41.421Z,0.80
2018-12-04T15:22:12.138Z,1.17
2018-12-04T15:24:43.217Z,0.40
2018-12-04T15:27:14.217Z,0.70
2018-12-04T15:29:45.450Z,1.23
2018-12-04T15:32:16.890Z,1.23
2018-12-04T15:34:47.873Z,4.13
2018-12-04T15:37:18.853Z,1.15
2018-12-04T15:39:49.533Z,1.13
2018-12-04T15:42:20.521Z,1.30
2018-12-04T15:44:51.555Z,1.67
2018-12-04T15:47:22.597Z,1.73
2018-12-04T15:49:56.603Z,2.47
2018-12-04T15:52:27.568Z,2.03
2018-12-04T15:54:58.710Z,2.77
2018-12-04T15:57:28.621Z,1.40
2018-12-04T16:00:00.186Z,0.57
2018-12-04T16:02:31.255Z,2.03
2018-12-04T16:05:00.620Z,1.83
2018-12-04T16:07:34.144Z,0.80
2018-12-04T16:10:09.466Z,2.33
2018-12-04T16:12:40.669Z,1.50
2018-12-04T16:15:11.593Z,2.40
2018-12-04T16:17:42.940Z,1.70
2018-12-04T16:20:14.170Z,2.07
2018-12-04T16:22:46.227Z,3.00
2018-12-04T16:25:17.300Z,1.17
2018-12-04T16:27:49.207Z,1.47
2018-12-04T16:30:22.429Z,2.83
2018-12-04T16:32:54.156Z,2.37
2018-12-04T16:35:24.116Z,2.97
2018-12-04T16:37:55.083Z,1.60
2018-12-04T16:40:24.572Z,4.93
2018-12-04T16:42:54.658Z,3.73
2018-12-04T16:45:25.377Z,4.53
2018-12-04T16:47:56.156Z,1.80
2018-12-04T16:50:26.403Z,3.47
2018-12-04T16:52:57.492Z,4.87
2018-12-04T16:55:29.030Z,6.10
2018-12-04T16:58:00.611Z,7.07
2018-12-04T17:00:31.694Z,4.87
2018-12-04T17:03:02.854Z,9.07
2018-12-04T17:05:33.502Z,8.80
2018-12-04T17:08:03.100Z,7.17
2018-12-04T17:10:35.137Z,6.57
2018-12-04T17:13:06.452Z,8.60
2018-12-04T17:15:36.076Z,6.60
2018-12-04T17:18:07.476Z,9.60
2018-12-04T17:20:38.806Z,6.67
2018-12-04T17:23:09.520Z,6.97
2018-12-04T17:25:38.990Z,6.77
2018-12-04T17:28:09.147Z,4.78
2018-12-04T17:30:41.165Z,6.33
2018-12-04T17:33:12.772Z,9.95
2018-12-04T17:35:42.991Z,11.57
2018-12-04T17:38:13.194Z,6.62
2018-12-04T17:40:42.921Z,7.40
2018-12-04T17:43:12.386Z,8.03
2018-12-04T17:45:42.039Z,7.40
2018-12-04T17:48:12.673Z,8.35
2018-12-04T17:50:44.219Z,11.63
2018-12-04T17:53:13.885Z,7.50
2018-12-04T17:55:43.228Z,9.30
2018-12-04T17:58:12.863Z,7.53
2018-12-04T18:00:42.307Z,5.45
2018-12-04T18:03:12.281Z,9.88
2018-12-04T18:05:41.610Z,8.60
2018-12-04T18:08:10.992Z,8.68
2018-12-04T18:10:40.480Z,9.73
2018-12-04T18:13:10.200Z,8.07
2018-12-04T18:15:39.571Z,7.07
2018-12-04T18:18:08.979Z,10.43
2018-12-04T18:20:38.434Z,5.53
2018-12-04T18:23:07.818Z,5.10
2018-12-04T18:25:37.212Z,8.77
2018-12-04T18:28:06.656Z,8.03
2018-12-04T18:30:35.960Z,6.23
2018-12-04T18:33:05.329Z,5.93
2018-12-04T18:35:35.124Z,10.47
2018-12-04T18:38:05.458Z,8.83
2018-12-04T18:40:35.418Z,9.80
2018-12-04T18:43:05.574Z,10.40
2018-12-04T18:45:35.192Z,9.83
2018-12-04T18:48:05.550Z,4.83
2018-12-04T18:50:35.020Z,7.77
2018-12-04T18:53:04.530Z,7.13
2018-12-04T18:55:34.162Z,9.30
2018-12-04T18:58:03.978Z,6.87
2018-12-04T19:00:33.983Z,6.77
2018-12-04T19:03:03.948Z,11.60
2018-12-04T19:05:34.828Z,6.17
2018-12-04T19:08:04.409Z,5.33
2018-12-04T19:10:34.798Z,12.60
2018-12-04T19:13:04.248Z,8.10
2018-12-04T19:15:33.901Z,6.10
2018-12-04T19:18:03.360Z,3.57
2018-12-04T19:20:32.917Z,4.90
2018-12-04T19:23:02.319Z,9.70
2018-12-04T19:25:31.990Z,5.47
2018-12-04T19:28:01.466Z,4.87
2018-12-04T19:30:31.160Z,7.77
2018-12-04T19:33:00.496Z,9.33
2018-12-04T19:35:30.448Z,7.37
2018-12-04T19:37:59.818Z,8.33
2018-12-04T19:40:29.223Z,7.30
2018-12-04T19:42:58.624Z,8.07
2018-12-04T19:45:28.048Z,8.10
2018-12-04T19:47:57.932Z,11.03
2018-12-04T19:50:28.347Z,7.43
2018-12-04T19:53:03.321Z,10.33
2018-12-04T19:55:38.215Z,5.37
2018-12-04T19:58:10.246Z,4.00
2018-12-04T20:00:41.220Z,5.73
2018-12-04T20:03:10.987Z,7.00
2018-12-04T20:05:41.137Z,7.57
2018-12-04T20:08:10.802Z,6.57
2018-12-04T20:10:40.815Z,8.63
2018-12-04T20:13:10.318Z,12.98
2018-12-04T20:15:39.875Z,6.03
2018-12-04T20:18:09.606Z,2.83
2018-12-04T20:20:40.417Z,5.80
2018-12-04T20:23:10.587Z,7.27
2018-12-04T20:26:03.713Z,8.17
2018-12-04T20:29:01.796Z,5.30
2018-12-04T20:31:32.362Z,5.03
2018-12-04T20:34:01.964Z,10.73
2018-12-04T20:36:31.511Z,4.57
2018-12-04T20:39:02.145Z,3.50
2018-12-04T20:41:32.111Z,6.43
2018-12-04T20:44:02.048Z,2.63
2018-12-04T20:46:32.176Z,5.87
2018-12-04T20:49:01.681Z,4.40
2018-12-04T20:51:31.203Z,6.87
2018-12-04T20:54:01.187Z,3.23
2018-12-04T20:56:30.712Z,5.83
2018-12-04T20:59:00.265Z,3.80
2018-12-04T21:01:32.477Z,5.73
2018-12-04T21:04:01.978Z,6.70
2018-12-04T21:06:31.655Z,38.73
2018-12-04T21:09:01.033Z,4.33
2018-12-04T21:11:30.403Z,9.67
2018-12-04T21:13:59.828Z,6.85
2018-12-04T21:16:29.184Z,3.10
2018-12-04T21:18:58.629Z,4.10
2018-12-04T21:21:28.367Z,3.30
2018-12-04T21:23:57.879Z,3.80
2018-12-04T21:26:27.243Z,5.63
2018-12-04T21:29:02.090Z,4.23
2018-12-04T21:31:39.952Z,6.87
2018-12-04T21:34:13.661Z,8.43
2018-12-04T21:39:36.517Z,4.20
2018-12-04T21:42:12.328Z,3.77
2018-12-04T21:44:47.410Z,2.40
2018-12-04T21:47:22.215Z,6.12
2018-12-04T21:49:51.605Z,9.80
2018-12-04T21:52:20.998Z,2.83
2018-12-04T21:54:50.375Z,4.50
2018-12-04T21:57:19.741Z,2.27
2018-12-04T21:59:50.117Z,3.37
2018-12-04T22:02:19.572Z,5.63
2018-12-04T22:04:49.036Z,5.10
2018-12-04T22:07:18.542Z,8.00
2018-12-04T22:09:48.260Z,5.20
2018-12-04T22:12:17.652Z,7.03
2018-12-04T22:14:47.139Z,4.27
2018-12-04T22:17:17.336Z,8.65
2018-12-04T22:19:47.526Z,3.13
2018-12-04T22:22:16.889Z,3.33
2018-12-04T22:24:46.439Z,4.07
2018-12-04T22:27:15.803Z,8.65
2018-12-04T22:29:45.210Z,4.87
2018-12-04T22:32:14.509Z,7.40
2018-12-04T22:34:43.896Z,2.27
2018-12-04T22:37:13.295Z,2.05
2018-12-04T22:39:43.215Z,1.97
2018-12-04T22:42:12.684Z,3.42
2018-12-04T22:44:47.665Z,4.93
2018-12-04T22:47:18.090Z,5.58
2018-12-04T22:49:48.137Z,3.03
2018-12-04T22:52:18.118Z,5.70
2018-12-04T22:54:47.566Z,3.73
2018-12-04T22:57:16.979Z,4.45
2018-12-04T23:02:12.310Z,7.13
2018-12-04T23:04:42.497Z,3.30
2018-12-04T23:09:46.266Z,1.23
2018-12-04T23:12:15.643Z,5.85
2018-12-04T23:14:44.993Z,2.80
2018-12-04T23:17:14.384Z,6.03
2018-12-04T23:19:44.226Z,4.80
2018-12-04T23:22:14.176Z,3.58
2018-12-04T23:24:43.723Z,3.67
2018-12-04T23:27:13.283Z,2.42
2018-12-04T23:29:43.199Z,2.33
2018-12-04T23:32:12.870Z,3.47
2018-12-04T23:34:42.233Z,3.83
2018-12-04T23:37:12.321Z,5.30
2018-12-04T23:39:42.223Z,7.27
2018-12-04T23:42:12.110Z,3.87
2018-12-04T23:44:41.528Z,5.87
2018-12-04T23:47:13.064Z,6.33
2018-12-04T23:49:42.519Z,3.90
2018-12-04T23:52:11.883Z,5.00
2018-12-04T23:54:41.270Z,2.80
2018-12-04T23:57:10.827Z,3.60
2018-12-04T23:59:40.440Z,4.37
